createdAt,value
2019-03-23T00:02:49.976Z,101056.27
2019-03-23T00:06:57.644Z,101053.67
2019-03-23T00:11:05.251Z,101049.38
2019-03-23T00:15:13.493Z,101051.56
2019-03-23T00:19:20.918Z,101055.03
2019-03-23T00:23:28.597Z,101050.74
2019-03-23T00:27:36.298Z,101058.83
2019-03-23T00:31:43.817Z,101054.03
2019-03-23T00:35:51.365Z,101052.06
2019-03-23T00:39:59.019Z,101055.39
2019-03-23T00:44:07.574Z,101050.74
2019-03-23T00:48:15.164Z,101054.39
2019-03-23T00:52:22.649Z,101051.92
2019-03-23T00:56:30.202Z,101044.16
2019-03-23T01:00:38.054Z,101040.55
2019-03-23T01:04:45.775Z,101042.53
2019-03-23T01:08:53.456Z,101035.42
2019-03-23T01:13:01.285Z,101033.63
2019-03-23T01:17:08.928Z,101038.90
2019-03-23T01:21:16.704Z,101044.68
2019-03-23T01:25:24.376Z,101042.86
2019-03-23T01:29:32.100Z,101035.94
2019-03-23T01:33:39.671Z,101036.08
2019-03-23T01:37:47.481Z,101038.25
2019-03-23T01:41:55.239Z,101034.10
2019-03-23T01:46:03.500Z,101026.34
2019-03-23T01:50:11.630Z,101025.67
2019-03-23T01:54:19.177Z,101016.75
2019-03-23T01:58:26.780Z,101020.37
2019-03-23T02:02:34.530Z,101013.43
2019-03-23T02:06:42.114Z,101014.27
2019-03-23T02:10:49.749Z,101007.83
2019-03-23T02:14:57.322Z,101007.13
2019-03-23T02:19:05.081Z,101008.73
2019-03-23T02:23:12.652Z,101003.63
2019-03-23T02:27:20.264Z,101010.05
2019-03-23T02:31:28.116Z,101013.50
2019-03-23T02:35:35.768Z,101013.00
2019-03-23T02:39:43.348Z,101013.30
2019-03-23T02:43:51.073Z,101019.39
2019-03-23T02:47:59.092Z,101020.52
2019-03-23T02:52:06.830Z,101017.88
2019-03-23T02:56:14.452Z,101021.98
2019-03-23T03:00:22.553Z,101027.24
2019-03-23T03:04:30.262Z,101022.12
2019-03-23T03:08:37.995Z,101022.27
2019-03-23T03:12:45.566Z,101019.06
2019-03-23T03:16:53.123Z,101020.18
2019-03-23T03:21:00.605Z,101017.70
2019-03-23T03:25:08.956Z,101017.34
2019-03-23T03:29:16.531Z,101021.47
2019-03-23T03:33:24.263Z,101021.50
2019-03-23T03:37:31.854Z,101021.18
2019-03-23T03:41:39.915Z,101022.25
2019-03-23T03:45:47.502Z,101027.90
2019-03-23T03:49:55.107Z,101033.74
2019-03-23T03:54:02.686Z,101034.31
2019-03-23T03:58:10.369Z,101027.51
2019-03-23T04:02:18.035Z,101028.56
2019-03-23T04:06:25.721Z,101037.67
2019-03-23T04:10:33.242Z,101034.32
2019-03-23T04:14:40.738Z,101038.88
2019-03-23T04:18:48.249Z,101038.77
2019-03-23T04:22:55.854Z,101040.36
2019-03-23T04:27:05.184Z,101040.39
2019-03-23T04:31:12.645Z,101038.06
2019-03-23T04:35:20.306Z,101037.58
2019-03-23T04:39:27.930Z,101037.83
2019-03-23T04:43:35.498Z,101036.33
2019-03-23T04:47:43.041Z,101037.12
2019-03-23T04:51:50.735Z,101040.72
2019-03-23T04:55:58.259Z,101041.91
2019-03-23T05:00:06.832Z,101047.22
2019-03-23T05:04:14.498Z,101051.69
2019-03-23T05:08:32.857Z,101054.20
2019-03-23T05:12:32.885Z,101058.27
2019-03-23T05:16:40.605Z,101060.23
2019-03-23T05:20:48.210Z,101057.49
2019-03-23T05:24:55.761Z,101067.52
2019-03-23T05:29:03.303Z,101069.73
2019-03-23T05:33:10.946Z,101070.56
2019-03-23T05:37:18.511Z,101066.03
2019-03-23T05:41:26.120Z,101070.91
2019-03-23T05:45:33.683Z,101073.09
2019-03-23T05:49:41.365Z,101075.98
2019-03-23T05:53:48.895Z,101080.11
2019-03-23T05:57:56.429Z,101079.47
2019-03-23T06:02:05.075Z,101088.36
2019-03-23T06:06:12.636Z,101094.32
2019-03-23T06:10:20.170Z,101092.45
2019-03-23T06:14:27.716Z,101100.34
2019-03-23T06:18:35.388Z,101102.04
2019-03-23T06:22:43.190Z,101106.97
2019-03-23T06:26:50.764Z,101112.38
2019-03-23T06:30:58.414Z,101108.51
2019-03-23T06:35:07.698Z,101112.11
2019-03-23T06:39:15.229Z,101110.47
2019-03-23T06:43:22.731Z,101116.53
2019-03-23T06:47:30.340Z,101119.89
2019-03-23T06:51:37.890Z,101119.22
2019-03-23T06:55:45.566Z,101120.17
2019-03-23T06:59:53.254Z,101120.43
2019-03-23T07:04:01.014Z,101133.81
2019-03-23T07:08:09.705Z,101130.61
2019-03-23T07:12:17.277Z,101133.09
2019-03-23T07:16:24.973Z,101133.46
2019-03-23T07:20:32.652Z,101129.69
2019-03-23T07:24:40.307Z,101124.91
2019-03-23T07:28:48.006Z,101138.41
2019-03-23T07:32:55.712Z,101129.29
2019-03-23T07:37:03.386Z,101130.44
2019-03-23T07:41:11.080Z,101131.70
2019-03-23T07:45:19.040Z,101130.91
2019-03-23T07:49:26.715Z,101129.45
2019-03-23T07:53:34.878Z,101135.59
2019-03-23T07:57:42.705Z,101138.58
2019-03-23T08:01:50.241Z,101143.38
2019-03-23T08:05:57.910Z,101143.02
2019-03-23T08:10:06.021Z,101140.98
2019-03-23T08:14:13.626Z,101147.93
2019-03-23T08:18:21.097Z,101156.14
2019-03-23T08:22:29.434Z,101154.17
2019-03-23T08:26:37.039Z,101158.08
2019-03-23T08:30:44.799Z,101162.03
2019-03-23T08:34:52.508Z,101166.03
2019-03-23T08:39:00.436Z,101167.42
2019-03-23T08:43:09.639Z,101177.38
2019-03-23T08:47:17.335Z,101182.13
2019-03-23T08:51:25.034Z,101183.05
2019-03-23T08:55:32.663Z,101186.64
2019-03-23T08:59:40.472Z,101183.81
2019-03-23T09:03:52.708Z,101178.48
2019-03-23T09:07:57.614Z,101180.94
2019-03-23T09:12:05.702Z,101188.44
2019-03-23T09:16:13.321Z,101186.92
2019-03-23T09:20:20.986Z,101182.08
2019-03-23T09:24:28.689Z,101185.89
2019-03-23T09:28:36.308Z,101188.67
2019-03-23T09:32:44.435Z,101192.07
2019-03-23T09:36:52.293Z,101185.23
2019-03-23T09:41:00.184Z,101191.42
2019-03-23T09:45:09.593Z,101190.84
2019-03-23T09:49:17.372Z,101190.52
2019-03-23T09:53:25.023Z,101192.62
2019-03-23T09:57:32.684Z,101189.55
2019-03-23T10:01:40.366Z,101189.32
2019-03-23T10:05:48.231Z,101189.16
2019-03-23T10:09:55.869Z,101186.77
2019-03-23T10:14:03.663Z,101181.06
2019-03-23T10:18:11.312Z,101181.52
2019-03-23T10:22:18.836Z,101174.94
2019-03-23T10:26:26.787Z,101173.60
2019-03-23T10:30:34.862Z,101171.87
2019-03-23T10:34:42.495Z,101170.28
2019-03-23T10:38:50.102Z,101173.13
2019-03-23T10:42:57.985Z,101171.14
2019-03-23T10:47:07.072Z,101169.80
2019-03-23T10:51:16.495Z,101169.51
2019-03-23T10:55:24.305Z,101171.00
2019-03-23T10:59:32.035Z,101177.89
2019-03-23T11:03:40.079Z,101175.22
2019-03-23T11:07:49.303Z,101168.03
2019-03-23T11:11:57.305Z,101172.47
2019-03-23T11:16:04.818Z,101159.48
2019-03-23T11:20:13.141Z,101164.52
2019-03-23T11:24:20.835Z,101159.92
2019-03-23T11:28:28.732Z,101162.58
2019-03-23T11:32:36.482Z,101169.11
2019-03-23T11:36:44.117Z,101171.41
2019-03-23T11:40:55.085Z,101163.84
2019-03-23T11:45:01.184Z,101158.73
2019-03-23T11:49:08.968Z,101160.38
2019-03-23T11:53:16.794Z,101153.24
2019-03-23T11:57:24.670Z,101150.89
2019-03-23T12:01:32.403Z,101146.08
2019-03-23T12:05:40.275Z,101138.24
2019-03-23T12:09:48.035Z,101145.75
2019-03-23T12:13:55.642Z,101149.07
2019-03-23T12:18:06.818Z,101145.22
2019-03-23T12:22:14.577Z,101142.23
2019-03-23T12:26:22.483Z,101140.81
2019-03-23T12:30:31.389Z,101137.46
2019-03-23T12:34:39.411Z,101131.22
2019-03-23T12:38:47.016Z,101129.32
2019-03-23T12:42:54.874Z,101128.03
2019-03-23T12:47:04.567Z,101125.70
2019-03-23T12:51:11.868Z,101120.27
2019-03-23T12:55:19.642Z,101115.03
2019-03-23T12:59:37.302Z,101116.92
2019-03-23T13:03:46.957Z,101111.39
2019-03-23T13:07:56.097Z,101111.72
2019-03-23T13:12:03.810Z,101116.98
2019-03-23T13:16:11.575Z,101109.38
2019-03-23T13:20:19.773Z,101114.91
2019-03-23T13:24:27.582Z,101103.88
2019-03-23T13:28:35.455Z,101108.33
2019-03-23T13:32:43.282Z,101097.61
2019-03-23T13:37:21.603Z,101097.64
2019-03-23T13:41:29.358Z,101094.30
2019-03-23T13:45:42.773Z,101090.19
2019-03-23T13:49:49.273Z,101082.11
2019-03-23T13:54:00.022Z,101083.17
2019-03-23T13:58:15.678Z,101079.57
2019-03-23T14:02:23.280Z,101077.93
2019-03-23T14:06:31.146Z,101077.13
2019-03-23T14:10:38.943Z,101071.89
2019-03-23T14:14:48.348Z,101073.00
2019-03-23T14:18:55.975Z,101071.31
2019-03-23T14:23:03.824Z,101070.16
2019-03-23T14:27:13.106Z,101065.61
2019-03-23T14:31:21.055Z,101065.13
2019-03-23T14:35:29.099Z,101069.72
2019-03-23T14:39:37.071Z,101069.72
2019-03-23T14:43:44.765Z,101057.05
2019-03-23T14:47:52.583Z,101053.84
2019-03-23T14:52:01.527Z,101053.38
2019-03-23T14:56:11.348Z,101047.59
2019-03-23T15:00:34.513Z,101057.09
2019-03-23T15:04:42.363Z,101057.30
2019-03-23T15:08:50.032Z,101057.52
2019-03-23T15:12:57.826Z,101057.02
2019-03-23T15:17:05.430Z,101059.18
2019-03-23T15:21:13.027Z,101058.32
2019-03-23T15:25:20.873Z,101057.00
2019-03-23T15:29:30.439Z,101063.39
2019-03-23T15:33:41.129Z,101058.06
2019-03-23T15:37:49.186Z,101060.70
2019-03-23T15:41:57.069Z,101056.52
2019-03-23T15:46:04.886Z,101053.33
2019-03-23T15:50:16.034Z,101058.77
2019-03-23T15:54:23.653Z,101059.50
2019-03-23T15:58:31.335Z,101052.52
2019-03-23T16:02:39.256Z,101059.50
2019-03-23T16:06:47.014Z,101057.56
2019-03-23T16:10:54.707Z,101059.17
2019-03-23T16:15:02.401Z,101061.13
2019-03-23T16:19:10.124Z,101055.41
2019-03-23T16:23:17.857Z,101057.45
2019-03-23T16:27:25.399Z,101066.39
2019-03-23T16:31:33.029Z,101077.28
2019-03-23T16:35:40.861Z,101080.33
2019-03-23T16:39:49.778Z,101091.54
2019-03-23T16:43:57.486Z,101090.02
2019-03-23T16:48:05.193Z,101092.45
2019-03-23T16:52:12.809Z,101095.47
2019-03-23T16:56:20.497Z,101105.05
2019-03-23T17:00:39.480Z,101097.05
2019-03-23T17:04:47.212Z,101097.09
2019-03-23T17:08:55.099Z,101107.14
2019-03-23T17:13:03.001Z,101112.03
2019-03-23T17:17:13.928Z,101117.52
2019-03-23T17:21:24.273Z,101119.70
2019-03-23T17:25:32.212Z,101120.95
2019-03-23T17:29:40.401Z,101120.50
2019-03-23T17:33:48.718Z,101121.25
2019-03-23T17:37:56.481Z,101120.44
2019-03-23T17:42:05.072Z,101128.41
2019-03-23T17:46:12.963Z,101129.50
2019-03-23T17:50:23.707Z,101139.13
2019-03-23T17:54:32.994Z,101138.56
2019-03-23T17:58:44.297Z,101147.98
2019-03-23T18:02:52.266Z,101154.66
2019-03-23T18:07:00.228Z,101159.13
2019-03-23T18:11:08.005Z,101168.75
2019-03-23T18:15:17.104Z,101169.44
2019-03-23T18:19:24.602Z,101183.45
2019-03-23T18:23:32.290Z,101189.47
2019-03-23T18:27:39.862Z,101193.78
2019-03-23T18:31:47.406Z,101198.13
2019-03-23T18:35:54.919Z,101208.70
2019-03-23T18:40:02.658Z,101208.90
2019-03-23T18:44:16.085Z,101215.91
2019-03-23T18:48:19.705Z,101225.34
2019-03-23T18:52:27.370Z,101212.47
2019-03-23T18:56:34.948Z,101229.71
2019-03-23T19:00:44.438Z,101230.26
2019-03-23T19:04:51.986Z,101233.06
2019-03-23T19:09:01.259Z,101233.77
2019-03-23T19:13:10.721Z,101234.13
2019-03-23T19:17:19.065Z,101233.33
2019-03-23T19:21:27.255Z,101229.20
2019-03-23T19:25:35.387Z,101229.22
2019-03-23T19:29:43.421Z,101240.52
2019-03-23T19:33:52.853Z,101239.05
2019-03-23T19:38:01.007Z,101234.61
2019-03-23T19:42:09.214Z,101228.63
2019-03-23T19:46:18.337Z,101232.28
2019-03-23T19:50:26.044Z,101234.47
2019-03-23T19:54:33.719Z,101238.62
2019-03-23T19:59:02.042Z,101239.91
2019-03-23T20:03:04.392Z,101248.04
2019-03-23T20:07:11.979Z,101255.98
2019-03-23T20:11:19.610Z,101249.53
2019-03-23T20:15:27.204Z,101248.06
2019-03-23T20:19:35.874Z,101244.25
2019-03-23T20:23:43.531Z,101246.90
2019-03-23T20:27:51.089Z,101242.92
2019-03-23T20:31:58.596Z,101243.59
2019-03-23T20:36:06.090Z,101234.83
2019-03-23T20:40:14.128Z,101239.45
2019-03-23T20:44:21.673Z,101241.28
2019-03-23T20:48:29.270Z,101237.14
2019-03-23T20:52:36.870Z,101235.82
2019-03-23T20:56:44.513Z,101228.55
2019-03-23T21:00:52.315Z,101230.53
2019-03-23T21:04:59.923Z,101222.91
2019-03-23T21:09:10.434Z,101224.72
2019-03-23T21:13:17.924Z,101232.00
2019-03-23T21:17:25.497Z,101230.66
2019-03-23T21:21:33.119Z,101223.88
2019-03-23T21:25:40.786Z,101223.87
2019-03-23T21:29:48.665Z,101222.70
2019-03-23T21:33:56.404Z,101218.23
2019-03-23T21:38:05.305Z,101218.05
2019-03-23T21:42:14.136Z,101210.44
2019-03-23T21:46:21.796Z,101204.83
2019-03-23T21:50:30.084Z,101206.78
2019-03-23T21:54:38.078Z,101198.02
2019-03-23T21:58:48.526Z,101200.98
2019-03-23T22:02:56.257Z,101212.66
2019-03-23T22:07:03.878Z,101207.09
2019-03-23T22:11:11.560Z,101194.49
2019-03-23T22:15:19.589Z,101196.51
2019-03-23T22:19:27.553Z,101191.23
2019-03-23T22:23:36.043Z,101190.73
2019-03-23T22:27:44.419Z,101189.09
2019-03-23T22:31:52.229Z,101192.91
2019-03-23T22:36:00.051Z,101188.89
2019-03-23T22:40:10.042Z,101190.20
2019-03-23T22:44:20.679Z,101187.89
2019-03-23T22:48:28.276Z,101182.41
2019-03-23T22:52:35.862Z,101183.56
2019-03-23T22:56:43.703Z,101184.38
2019-03-23T23:00:52.243Z,101182.59
2019-03-23T23:05:00.465Z,101175.26
2019-03-23T23:09:11.002Z,101171.30
2019-03-23T23:13:18.768Z,101175.41
2019-03-23T23:17:26.343Z,101173.40
2019-03-23T23:21:34.000Z,101162.32
2019-03-23T23:25:41.752Z,101153.27
2019-03-23T23:29:49.576Z,101147.30
2019-03-23T23:33:57.168Z,101138.20
2019-03-23T23:38:04.787Z,101132.36
2019-03-23T23:42:12.536Z,101133.35
2019-03-23T23:46:20.344Z,101132.15
2019-03-23T23:50:27.989Z,101140.42
2019-03-23T23:54:35.776Z,101136.94
2019-03-23T23:58:46.308Z,101124.70
